Time;durP1;ratioP1;P1;durP2;ratioP2;P2;SDS_P1;SDS_P2;PMS_P1;PMS_P2;Temp;Humidity;BMP_temperature;BMP_pressure;BME280_temperature;BME280_humidity;BME280_pressure;Samples;Min_cycle;Max_cycle;Signal;HPM_P1;HPM_P2
2022/01/23 00:00:43;;;;;;;12.00;7.38;;;5.80;99.90;;;;;;5028362;28;20191;-88
2022/01/23 00:03:16;;;;;;;10.82;6.70;;;5.70;99.90;;;;;;5027265;28;20347;-88
2022/01/23 00:05:44;;;;;;;12.52;6.80;;;5.50;99.90;;;;;;5028900;28;20197;-89
2022/01/23 00:08:13;;;;;;;13.45;7.85;;;5.60;99.90;;;;;;5025381;28;20671;-87
2022/01/23 00:10:40;;;;;;;11.48;6.82;;;5.60;99.90;;;;;;5025506;28;20200;-88
2022/01/23 00:13:11;;;;;;;10.57;6.68;;;5.70;99.90;;;;;;5024567;28;20592;-87
2022/01/23 00:18:24;;;;;;;10.43;6.07;;;5.60;99.90;;;;;;5040461;28;20233;-85
2022/01/23 00:20:52;;;;;;;10.50;6.18;;;6.20;99.90;;;;;;5037149;28;20218;-88
2022/01/23 00:23:31;;;;;;;10.80;6.80;;;6.00;99.90;;;;;;5030439;28;20208;-89
2022/01/23 00:31:30;;;;;;;12.07;7.22;;;6.00;99.90;;;;;;5034695;28;20197;-88
2022/01/23 00:33:58;;;;;;;11.13;6.90;;;6.00;99.90;;;;;;5038887;28;20222;-88
2022/01/23 00:36:26;;;;;;;10.50;6.50;;;6.10;99.90;;;;;;5030368;28;20670;-87
2022/01/23 00:38:54;;;;;;;11.48;6.35;;;5.60;99.90;;;;;;5031919;28;20233;-86
2022/01/23 00:41:21;;;;;;;13.32;6.93;;;6.20;99.90;;;;;;5035890;28;20218;-88
2022/01/23 00:43:49;;;;;;;12.55;7.50;;;6.00;99.90;;;;;;5028161;28;20232;-88
2022/01/23 00:46:32;;;;;;;11.02;6.47;;;6.10;99.90;;;;;;5026386;28;20209;-88
2022/01/23 00:49:24;;;;;;;9.63;5.95;;;6.30;99.90;;;;;;5025734;28;20232;-88
2022/01/23 00:51:52;;;;;;;13.82;7.43;;;6.30;99.90;;;;;;5026290;28;20202;-88
2022/01/23 00:54:19;;;;;;;11.68;7.28;;;5.80;99.90;;;;;;5030014;28;20205;-88
2022/01/23 00:56:46;;;;;;;10.75;7.20;;;6.10;99.90;;;;;;5025740;28;20211;-88
2022/01/23 00:59:13;;;;;;;12.70;7.80;;;6.10;99.90;;;;;;5031571;28;20237;-88
2022/01/23 01:01:40;;;;;;;14.60;8.13;;;6.00;99.90;;;;;;5031313;28;20217;-86
2022/01/23 01:04:08;;;;;;;10.43;7.68;;;6.10;99.90;;;;;;5030149;28;20222;-88
2022/01/23 01:06:36;;;;;;;15.70;7.55;;;6.20;99.90;;;;;;5036757;28;20224;-87
2022/01/23 01:09:05;;;;;;;14.40;8.98;;;5.70;99.90;;;;;;5038221;28;20253;-88
2022/01/23 01:11:55;;;;;;;10.60;7.43;;;5.70;99.90;;;;;;5036588;28;20696;-88
2022/01/23 01:14:35;;;;;;;12.57;7.68;;;5.90;99.90;;;;;;5035573;28;20209;-90
2022/01/23 01:17:10;;;;;;;13.05;6.93;;;5.70;99.90;;;;;;5033464;28;20200;-90
2022/01/23 01:30:43;;;;;;;19.42;7.63;;;6.10;99.90;;;;;;5036244;28;20242;-85
2022/01/23 01:33:20;;;;;;;10.90;7.78;;;6.00;99.90;;;;;;5037006;28;20218;-88
2022/01/23 01:35:55;;;;;;;11.57;7.10;;;5.80;99.90;;;;;;5024726;28;20209;-88
2022/01/23 01:38:21;;;;;;;12.32;7.35;;;6.10;99.90;;;;;;5023671;28;20263;-87
2022/01/23 01:40:48;;;;;;;10.75;7.18;;;6.10;99.90;;;;;;5025054;28;20218;-87
2022/01/23 01:43:15;;;;;;;11.45;6.70;;;5.80;99.90;;;;;;5031549;28;20221;-87
2022/01/23 01:45:44;;;;;;;13.38;7.78;;;6.00;99.90;;;;;;5036002;28;20205;-86
2022/01/23 01:48:13;;;;;;;11.90;7.78;;;6.40;99.90;;;;;;5027674;28;20234;-87
2022/01/23 01:50:45;;;;;;;12.27;7.85;;;6.20;99.90;;;;;;5026692;28;20211;-88
2022/01/23 01:53:14;;;;;;;13.27;6.50;;;6.50;99.90;;;;;;5026615;28;20214;-87
2022/01/23 01:55:45;;;;;;;12.45;7.40;;;6.50;99.90;;;;;;5025400;28;20377;-89
2022/01/23 01:58:33;;;;;;;12.57;7.85;;;6.50;99.90;;;;;;5034588;28;20214;-87
2022/01/23 02:01:04;;;;;;;11.77;7.82;;;6.40;99.90;;;;;;5036759;28;20205;-89
2022/01/23 03:40:28;;;;;;;13.85;7.90;;;6.10;99.90;;;;;;4929794;29;20225;-83
2022/01/23 03:50:47;;;;;;;;;;;;;;;;;;;;;
2022/01/23 04:14:52;;;;;;;13.60;8.95;;;6.10;99.90;;;;;;4939505;29;20231;-83
2022/01/23 04:34:31;;;;;;;15.15;8.23;;;6.10;99.90;;;;;;4979351;28;20217;-82
2022/01/23 05:13:28;;;;;;;11.13;6.63;;;5.80;99.90;;;;;;4986774;28;20209;-82
2022/01/23 05:23:03;;;;;;;17.00;8.88;;;5.90;99.90;;;;;;4775196;29;20213;-83
2022/01/23 05:33:14;;;;;;;13.30;7.75;;;5.90;99.90;;;;;;4760653;29;20581;-83
2022/01/23 05:43:26;;;;;;;;;;;;;;;;;;;;;
2022/01/23 05:53:55;;;;;;;;;;;;;;;;;;;;;
2022/01/23 05:57:23;;;;;;;14.57;8.95;;;5.90;99.90;;;;;;4870823;29;20210;-81
2022/01/23 06:07:22;;;;;;;15.60;9.48;;;6.00;99.90;;;;;;4899489;29;20321;-83
2022/01/23 06:10:53;;;;;;;15.25;8.27;;;6.20;99.90;;;;;;4912589;29;20233;-82
2022/01/23 06:21:19;;;;;;;14.85;9.98;;;6.10;99.90;;;;;;4882600;29;20206;-81
2022/01/23 06:51:47;;;;;;;;;;;;;;;;;;;;;
2022/01/23 07:57:28;;;;;;;16.10;10.27;;;6.00;99.90;;;;;;4867171;29;20316;-83
2022/01/23 08:00:49;;;;;;;20.23;10.75;;;6.00;99.90;;;;;;4921385;29;20283;-83
2022/01/23 08:09:58;;;;;;;19.90;11.15;;;6.00;99.90;;;;;;4965385;23;20246;-89
2022/01/23 08:12:25;;;;;;;17.15;10.65;;;6.70;99.90;;;;;;5009759;28;20229;-89
2022/01/23 08:14:52;;;;;;;17.92;11.18;;;6.60;99.90;;;;;;5019745;28;20242;-89
2022/01/23 08:17:24;;;;;;;21.65;11.88;;;6.50;99.90;;;;;;5010847;28;20252;-88
2022/01/23 08:19:53;;;;;;;21.95;11.82;;;6.40;99.90;;;;;;5026127;28;20238;-87
2022/01/23 08:22:20;;;;;;;19.10;11.30;;;6.50;99.90;;;;;;5034127;28;20218;-88
2022/01/23 08:24:47;;;;;;;21.15;11.80;;;6.00;99.90;;;;;;5026984;28;20227;-89
2022/01/23 08:27:14;;;;;;;21.00;12.63;;;6.40;99.90;;;;;;5026722;28;20246;-89
2022/01/23 08:29:41;;;;;;;19.95;11.77;;;6.20;99.90;;;;;;5025335;28;20244;-89
2022/01/23 08:32:11;;;;;;;16.70;11.10;;;5.80;99.90;;;;;;5025860;28;20211;-88
2022/01/23 08:34:39;;;;;;;19.73;11.65;;;6.40;99.90;;;;;;5026926;28;20267;-87
2022/01/23 08:37:09;;;;;;;19.90;12.95;;;6.40;99.90;;;;;;5026337;28;20214;-89
2022/01/23 08:39:37;;;;;;;21.98;12.88;;;6.20;99.90;;;;;;5024963;28;20230;-89
2022/01/23 08:42:05;;;;;;;19.20;12.82;;;6.20;99.90;;;;;;5025280;28;20214;-87
2022/01/23 08:44:33;;;;;;;19.10;11.60;;;6.10;99.90;;;;;;5025919;28;20271;-88
2022/01/23 08:47:01;;;;;;;20.10;12.07;;;6.10;99.90;;;;;;5035395;28;20244;-88
2022/01/23 08:49:29;;;;;;;20.30;12.13;;;6.30;99.90;;;;;;5034307;28;20258;-87
2022/01/23 08:51:58;;;;;;;19.63;13.00;;;6.20;99.90;;;;;;5028311;28;20201;-87
2022/01/23 08:54:28;;;;;;;26.15;16.60;;;6.40;99.90;;;;;;5024479;28;20241;-86
2022/01/23 08:56:55;;;;;;;30.05;19.27;;;6.00;99.90;;;;;;5023784;28;20598;-86
2022/01/23 08:59:22;;;;;;;29.35;18.20;;;6.10;99.90;;;;;;5023212;28;20229;-87
2022/01/23 09:01:49;;;;;;;24.00;16.73;;;6.30;99.90;;;;;;5024536;28;20209;-87
2022/01/23 09:04:16;;;;;;;28.75;17.35;;;6.40;99.90;;;;;;5025218;28;20272;-87
2022/01/23 09:06:43;;;;;;;26.40;16.52;;;6.50;99.90;;;;;;5024024;28;20213;-87
2022/01/23 09:09:16;;;;;;;26.65;17.10;;;6.60;99.90;;;;;;5024627;28;20628;-88
2022/01/23 09:11:56;;;;;;;26.48;14.80;;;6.80;99.90;;;;;;5032820;28;20206;-89
2022/01/23 09:14:24;;;;;;;28.10;15.35;;;6.40;99.90;;;;;;5024112;28;20222;-87
2022/01/23 09:16:53;;;;;;;28.67;16.23;;;6.70;99.90;;;;;;5023945;28;20212;-86
2022/01/23 09:19:21;;;;;;;29.15;16.90;;;6.50;99.90;;;;;;5022878;28;20229;-87
2022/01/23 09:21:50;;;;;;;26.35;15.27;;;6.40;99.90;;;;;;5027516;28;20297;-89
2022/01/23 09:24:17;;;;;;;28.63;18.08;;;6.80;99.90;;;;;;5032333;28;20273;-89
2022/01/23 09:26:52;;;;;;;32.35;18.98;;;6.20;99.90;;;;;;5023833;28;20211;-89
2022/01/23 09:29:28;;;;;;;27.58;16.95;;;6.10;99.90;;;;;;5022676;28;20258;-86
2022/01/23 09:31:55;;;;;;;27.50;17.23;;;6.40;99.90;;;;;;5021985;28;20206;-87
2022/01/23 09:34:24;;;;;;;27.17;17.80;;;6.80;99.90;;;;;;5021861;28;20258;-89
2022/01/23 09:36:54;;;;;;;27.05;16.33;;;6.80;99.90;;;;;;5022086;28;20242;-88
2022/01/23 09:39:22;;;;;;;24.33;15.30;;;6.50;99.90;;;;;;5023021;28;20245;-90
2022/01/23 09:41:52;;;;;;;22.48;13.70;;;6.70;99.90;;;;;;5023507;28;20301;-87
2022/01/23 09:44:20;;;;;;;25.63;16.10;;;6.70;99.90;;;;;;5024412;28;20229;-88
2022/01/23 09:46:48;;;;;;;21.58;13.50;;;6.40;99.90;;;;;;5021740;28;20220;-87
2022/01/23 09:49:16;;;;;;;21.38;12.85;;;6.40;99.90;;;;;;5022724;28;20237;-87
2022/01/23 09:51:45;;;;;;;23.05;14.40;;;6.90;99.90;;;;;;5022926;28;20211;-89
2022/01/23 09:54:14;;;;;;;21.95;13.25;;;6.90;99.90;;;;;;5022042;28;20283;-87
2022/01/23 09:56:43;;;;;;;33.60;19.85;;;7.00;99.90;;;;;;5024731;28;20695;-89
2022/01/23 09:59:12;;;;;;;22.70;14.80;;;6.40;99.90;;;;;;5023332;28;20267;-89
2022/01/23 10:01:41;;;;;;;27.08;16.20;;;6.80;99.90;;;;;;5023583;28;20210;-88
2022/01/23 10:04:08;;;;;;;24.27;16.65;;;6.90;99.90;;;;;;5022594;28;20269;-88
2022/01/23 10:06:35;;;;;;;19.90;13.65;;;7.20;99.90;;;;;;5028568;28;20214;-87
2022/01/23 10:09:02;;;;;;;23.85;15.40;;;6.90;99.90;;;;;;5025371;28;20256;-88
2022/01/23 10:11:35;;;;;;;26.73;17.80;;;6.70;99.90;;;;;;5024903;28;20199;-87
2022/01/23 10:14:02;;;;;;;23.27;15.27;;;6.50;99.90;;;;;;5034968;28;20257;-87
2022/01/23 10:16:32;;;;;;;26.27;17.15;;;6.90;99.90;;;;;;5035863;28;20253;-87
2022/01/23 10:18:59;;;;;;;24.02;14.75;;;7.00;99.90;;;;;;5031492;28;20260;-89
2022/01/23 10:21:26;;;;;;;24.88;14.57;;;6.70;99.90;;;;;;5025923;28;20229;-88
2022/01/23 10:23:53;;;;;;;24.25;14.70;;;7.00;99.90;;;;;;5025460;28;20311;-88
2022/01/23 10:26:39;;;;;;;24.08;14.02;;;7.10;99.90;;;;;;5030976;28;20697;-88
2022/01/23 10:29:18;;;;;;;24.75;14.88;;;7.20;99.90;;;;;;5027725;28;20240;-90
2022/01/23 10:32:10;;;;;;;22.33;13.50;;;7.00;99.90;;;;;;5024185;28;20289;-90
2022/01/23 10:34:45;;;;;;;28.23;15.82;;;7.10;99.90;;;;;;5024325;28;20199;-88
2022/01/23 10:37:18;;;;;;;24.88;14.38;;;6.80;99.90;;;;;;5024723;28;20226;-89
2022/01/23 10:39:47;;;;;;;22.40;14.50;;;6.40;99.90;;;;;;5031160;28;20269;-88
2022/01/23 10:42:48;;;;;;;22.83;15.98;;;6.90;99.90;;;;;;5029083;28;20213;-88
2022/01/23 10:48:36;;;;;;;21.92;13.55;;;6.80;99.90;;;;;;5026619;28;20253;-89
2022/01/23 10:51:24;;;;;;;21.42;12.00;;;6.80;99.90;;;;;;5032528;28;20222;-88
2022/01/23 10:54:06;;;;;;;15.90;11.60;;;7.00;99.90;;;;;;5035478;28;20219;-87
2022/01/23 10:56:38;;;;;;;16.13;10.82;;;7.10;99.90;;;;;;5028162;28;20289;-88
2022/01/23 10:59:07;;;;;;;15.88;10.60;;;7.00;99.90;;;;;;5035234;28;20214;-88
2022/01/23 11:01:35;;;;;;;18.23;10.23;;;6.80;99.90;;;;;;5028937;28;20198;-87
2022/01/23 11:04:14;;;;;;;16.83;12.45;;;7.20;99.90;;;;;;5026858;28;20241;-88
2022/01/23 11:06:57;;;;;;;24.77;13.15;;;6.70;99.90;;;;;;5026656;28;20218;-89
2022/01/23 11:09:31;;;;;;;17.55;10.70;;;6.70;99.90;;;;;;5028741;28;20233;-87
2022/01/23 11:12:05;;;;;;;17.05;11.60;;;7.10;99.90;;;;;;5029182;28;20220;-87
2022/01/23 11:17:24;;;;;;;17.83;11.02;;;7.40;99.90;;;;;;5028934;28;20201;-87
2022/01/23 11:19:54;;;;;;;16.45;10.63;;;7.30;99.90;;;;;;5027415;28;20225;-87
2022/01/23 11:22:23;;;;;;;18.70;12.00;;;7.10;99.90;;;;;;5027459;28;20199;-89
2022/01/23 11:24:51;;;;;;;22.83;10.85;;;6.80;99.90;;;;;;5026706;28;20238;-87
2022/01/23 11:27:20;;;;;;;16.73;10.35;;;7.30;99.90;;;;;;5025968;28;20233;-86
2022/01/23 11:30:08;;;;;;;16.83;11.40;;;7.20;99.90;;;;;;5026693;28;20231;-88
2022/01/23 11:32:39;;;;;;;16.77;11.27;;;7.00;99.90;;;;;;5027333;28;20186;-89
2022/01/23 11:35:12;;;;;;;17.58;12.35;;;7.10;99.90;;;;;;5031345;28;20233;-88
2022/01/23 11:37:46;;;;;;;19.52;11.75;;;7.20;99.90;;;;;;5036466;28;20195;-87
2022/01/23 11:54:09;;;;;;;20.60;12.95;;;7.40;99.90;;;;;;5005511;28;20614;-89
2022/01/23 11:56:43;;;;;;;21.63;11.48;;;6.90;99.90;;;;;;5029177;28;20574;-87
2022/01/23 11:59:32;;;;;;;17.23;11.40;;;7.30;99.90;;;;;;5029735;28;20695;-88
2022/01/23 12:02:34;;;;;;;16.27;10.82;;;7.20;99.90;;;;;;5028547;28;20201;-89
2022/01/23 12:05:33;;;;;;;19.30;12.30;;;7.20;99.90;;;;;;5028604;28;20347;-88
2022/01/23 12:08:36;;;;;;;19.48;11.27;;;7.40;99.90;;;;;;5027395;28;20213;-89
2022/01/23 12:11:35;;;;;;;18.75;11.60;;;7.40;99.90;;;;;;5029054;28;20248;-88
2022/01/23 12:17:10;;;;;;;13.48;9.75;;;6.90;99.90;;;;;;5026433;28;20279;-87
2022/01/23 12:19:49;;;;;;;13.07;9.20;;;7.10;99.90;;;;;;5028256;28;20597;-88
2022/01/23 12:22:26;;;;;;;13.52;8.15;;;7.20;99.90;;;;;;5026418;28;20221;-88
2022/01/23 12:24:56;;;;;;;16.60;10.20;;;7.10;99.90;;;;;;5030846;28;20190;-89
2022/01/23 12:27:26;;;;;;;16.02;10.07;;;6.80;99.90;;;;;;5030535;28;20214;-87
2022/01/23 12:29:55;;;;;;;17.05;11.50;;;7.00;99.90;;;;;;5029620;28;20227;-89
2022/01/23 12:32:26;;;;;;;18.25;11.65;;;6.50;99.90;;;;;;5027280;28;20217;-89
2022/01/23 12:34:56;;;;;;;16.30;10.20;;;7.00;99.90;;;;;;5027033;28;20234;-88
2022/01/23 12:37:23;;;;;;;14.50;9.25;;;7.20;99.90;;;;;;5030116;28;20650;-89
2022/01/23 12:40:25;;;;;;;14.00;9.60;;;6.70;99.90;;;;;;5027464;28;20237;-89
2022/01/23 12:43:07;;;;;;;17.35;9.40;;;7.00;99.90;;;;;;5026329;28;20237;-89
2022/01/23 12:45:49;;;;;;;15.27;10.30;;;6.90;99.90;;;;;;5026572;28;20233;-87
2022/01/23 12:48:39;;;;;;;15.07;10.20;;;7.30;99.90;;;;;;5025378;28;20206;-90
2022/01/23 12:51:08;;;;;;;15.98;9.50;;;7.60;99.90;;;;;;5027715;28;20214;-89
2022/01/23 12:53:58;;;;;;;13.73;8.57;;;7.50;99.90;;;;;;5026155;28;20233;-89
2022/01/23 12:56:30;;;;;;;13.10;7.55;;;7.20;99.90;;;;;;5026340;28;20719;-89
2022/01/23 12:59:05;;;;;;;13.00;8.82;;;7.40;99.90;;;;;;5029615;28;20301;-88
2022/01/23 13:01:32;;;;;;;14.05;8.77;;;7.30;99.90;;;;;;5030917;28;20229;-89
2022/01/23 13:04:01;;;;;;;14.00;7.93;;;7.40;99.90;;;;;;5028578;28;20313;-89
2022/01/23 13:06:30;;;;;;;13.50;7.80;;;7.40;99.90;;;;;;5027532;28;20222;-88
2022/01/23 13:09:20;;;;;;;10.57;6.60;;;7.10;99.90;;;;;;5026550;28;20235;-88
2022/01/23 13:12:08;;;;;;;10.30;7.03;;;7.50;99.90;;;;;;5029873;28;20207;-89
2022/01/23 13:14:50;;;;;;;10.63;6.35;;;7.50;99.90;;;;;;5027415;28;20206;-88
2022/01/23 13:17:39;;;;;;;10.75;7.43;;;7.40;99.90;;;;;;5028047;28;20238;-87
2022/01/23 13:31:43;;;;;;;9.95;5.60;;;7.70;99.90;;;;;;5029223;28;20234;-89
2022/01/23 13:34:29;;;;;;;9.65;6.60;;;7.50;99.90;;;;;;5033367;28;20207;-87
2022/01/23 13:36:58;;;;;;;13.35;8.07;;;7.10;99.90;;;;;;5027711;28;20222;-90
2022/01/23 13:39:28;;;;;;;10.82;7.50;;;7.30;99.90;;;;;;5025388;28;20230;-89
2022/01/23 13:42:09;;;;;;;11.07;8.27;;;7.10;99.90;;;;;;5029205;28;20208;-89
2022/01/23 13:53:10;;;;;;;9.07;5.05;;;7.10;99.90;;;;;;5033905;28;20243;-88
2022/01/23 14:03:51;;;;;;;8.20;5.00;;;7.00;99.90;;;;;;5022391;28;20209;-88
2022/01/23 14:06:18;;;;;;;9.18;5.57;;;6.70;99.90;;;;;;5023720;28;20209;-88
2022/01/23 14:09:01;;;;;;;7.30;4.20;;;6.70;99.90;;;;;;5022296;28;20690;-88
2022/01/23 16:24:30;;;;;;;6.00;3.47;;;6.90;99.90;;;;;;4405636;23;20348;-86
2022/01/23 20:13:32;;;;;;;6.00;3.58;;;6.20;99.90;;;;;;6171070;23;20213;-87
2022/01/23 20:16:09;;;;;;;5.35;2.65;;;6.30;99.90;;;;;;6173949;23;20162;-87
2022/01/23 20:18:39;;;;;;;7.97;3.85;;;6.50;99.90;;;;;;6169492;23;20567;-88
2022/01/23 20:21:08;;;;;;;6.43;3.10;;;6.60;99.90;;;;;;6169106;23;20167;-89
2022/01/23 20:23:35;;;;;;;6.32;3.60;;;6.50;99.90;;;;;;6176896;23;20194;-87
2022/01/23 20:26:03;;;;;;;5.38;3.10;;;6.30;99.90;;;;;;6167531;23;20227;-89
2022/01/23 20:28:31;;;;;;;6.15;3.20;;;6.50;99.90;;;;;;6168189;23;20187;-86
2022/01/23 20:31:02;;;;;;;5.20;2.60;;;6.70;99.90;;;;;;6172668;23;20156;-86
2022/01/23 20:33:29;;;;;;;7.28;4.15;;;6.80;99.90;;;;;;6169585;23;20171;-88
2022/01/23 20:35:56;;;;;;;6.95;3.70;;;6.50;99.90;;;;;;6167283;23;20174;-87
2022/01/23 20:38:23;;;;;;;5.40;3.10;;;6.30;99.90;;;;;;6167555;23;20227;-87
2022/01/23 20:43:51;;;;;;;;;;;;;;;;;;;;;
2022/01/23 20:46:19;;;;;;;7.13;4.10;;;6.40;99.90;;;;;;6167974;23;20169;-85
2022/01/23 20:48:46;;;;;;;9.90;4.20;;;6.30;99.90;;;;;;6172704;23;20324;-86
2022/01/23 20:51:20;;;;;;;6.43;3.60;;;6.20;99.90;;;;;;6180082;23;20233;-87
2022/01/23 20:53:51;;;;;;;6.40;4.25;;;5.80;99.90;;;;;;6168825;23;20167;-87
2022/01/23 20:56:20;;;;;;;6.35;3.70;;;6.20;99.90;;;;;;6166612;23;20262;-86
2022/01/23 20:58:50;;;;;;;7.38;4.57;;;6.00;99.90;;;;;;6166861;23;20191;-85
2022/01/23 21:01:35;;;;;;;8.07;4.28;;;6.00;99.90;;;;;;6165515;23;20203;-88
2022/01/23 21:04:08;;;;;;;7.78;3.78;;;6.20;99.90;;;;;;6169372;23;20178;-87
2022/01/23 21:06:44;;;;;;;7.20;3.90;;;6.20;99.90;;;;;;6167172;23;20178;-85
2022/01/23 21:09:11;;;;;;;8.15;4.80;;;5.80;99.90;;;;;;6168663;23;20511;-88
2022/01/23 21:11:38;;;;;;;7.63;4.22;;;6.20;99.90;;;;;;6165424;23;20297;-89
2022/01/23 21:14:12;;;;;;;7.65;5.00;;;5.80;99.90;;;;;;6164079;23;20184;-86
2022/01/23 21:39:28;;;;;;;8.02;4.57;;;6.30;99.90;;;;;;6091455;23;20181;-85
2022/01/23 21:41:55;;;;;;;9.10;5.47;;;6.10;99.90;;;;;;6176218;23;20203;-86
2022/01/23 21:44:21;;;;;;;8.82;5.60;;;5.90;99.90;;;;;;6171662;23;20183;-86
2022/01/23 21:46:50;;;;;;;9.00;5.18;;;6.30;99.90;;;;;;6170239;23;20578;-87
2022/01/23 21:49:18;;;;;;;8.00;4.88;;;5.80;99.90;;;;;;6179920;23;20182;-87
2022/01/23 21:51:45;;;;;;;8.55;5.20;;;5.90;99.90;;;;;;6181030;23;20253;-84
2022/01/23 21:54:12;;;;;;;8.35;4.90;;;5.90;99.90;;;;;;6172601;23;20559;-87
2022/01/23 21:56:41;;;;;;;9.73;5.72;;;5.70;99.90;;;;;;6167539;23;20203;-87
2022/01/23 21:59:08;;;;;;;9.15;5.65;;;5.70;99.90;;;;;;6166613;23;20214;-87
2022/01/23 22:01:35;;;;;;;9.15;5.60;;;5.80;99.90;;;;;;6165934;23;20230;-87
2022/01/23 22:04:03;;;;;;;9.52;5.65;;;5.70;99.90;;;;;;6166118;23;20186;-87
2022/01/23 22:06:33;;;;;;;8.75;5.18;;;5.70;99.90;;;;;;6165294;23;20225;-85
2022/01/23 22:09:06;;;;;;;8.35;5.35;;;5.40;99.90;;;;;;6164908;23;20183;-86
2022/01/23 22:11:39;;;;;;;9.63;5.72;;;5.70;99.90;;;;;;6164441;23;20262;-86
2022/01/23 22:16:50;;;;;;;9.30;4.95;;;5.80;99.90;;;;;;6164694;23;20197;-87
2022/01/23 22:19:18;;;;;;;8.98;5.32;;;5.80;99.90;;;;;;6170335;23;20189;-86
2022/01/23 22:21:55;;;;;;;8.00;4.70;;;5.90;99.90;;;;;;6167978;23;20239;-85
2022/01/23 22:27:07;;;;;;;9.55;5.55;;;5.90;99.90;;;;;;6173491;23;20186;-87
2022/01/23 22:29:35;;;;;;;9.98;6.00;;;6.00;99.90;;;;;;6167232;23;20196;-86
2022/01/23 22:32:03;;;;;;;8.57;5.10;;;5.80;99.90;;;;;;6168057;23;20216;-87
2022/01/23 22:34:31;;;;;;;8.88;5.35;;;5.70;99.90;;;;;;6170884;23;20225;-89
2022/01/23 22:36:58;;;;;;;9.40;5.65;;;5.70;99.90;;;;;;6169063;23;20199;-88
2022/01/23 22:39:25;;;;;;;9.13;6.32;;;5.20;99.90;;;;;;6170858;23;20522;-87
2022/01/23 22:41:52;;;;;;;10.88;6.20;;;5.50;99.90;;;;;;6171791;23;20226;-88
2022/01/23 22:44:19;;;;;;;10.35;6.25;;;5.60;99.90;;;;;;6173106;23;20533;-88
2022/01/23 22:46:46;;;;;;;10.90;6.88;;;5.70;99.90;;;;;;6176956;23;20213;-87
2022/01/23 22:49:15;;;;;;;8.60;5.60;;;5.60;99.90;;;;;;6182447;23;20198;-85
2022/01/23 22:51:48;;;;;;;9.48;6.43;;;5.70;99.90;;;;;;6177893;23;20199;-87
2022/01/23 22:54:16;;;;;;;10.15;5.80;;;5.90;99.90;;;;;;6175995;23;20171;-87
2022/01/23 22:56:43;;;;;;;11.38;6.65;;;5.80;99.90;;;;;;6168931;23;20260;-87
2022/01/23 22:59:11;;;;;;;10.82;5.75;;;5.90;99.90;;;;;;6165910;23;20183;-87
2022/01/23 23:01:40;;;;;;;10.32;6.13;;;5.90;99.90;;;;;;6174489;23;20203;-87
2022/01/23 23:04:07;;;;;;;9.52;5.85;;;5.70;99.90;;;;;;6172529;23;20193;-87
2022/01/23 23:06:34;;;;;;;9.45;5.93;;;5.70;99.90;;;;;;6166894;23;20242;-87
2022/01/23 23:09:05;;;;;;;10.15;6.32;;;5.70;99.90;;;;;;6164364;23;20209;-86
2022/01/23 23:11:32;;;;;;;10.27;6.20;;;5.80;99.90;;;;;;6165564;23;20285;-87
2022/01/23 23:13:59;;;;;;;10.88;7.63;;;5.90;99.90;;;;;;6166791;23;20644;-86
2022/01/23 23:16:35;;;;;;;15.02;6.32;;;5.90;99.90;;;;;;6164964;23;20186;-85
2022/01/23 23:19:05;;;;;;;11.68;6.63;;;5.80;99.90;;;;;;6162052;23;20196;-84
2022/01/23 23:21:37;;;;;;;8.48;5.00;;;5.60;99.90;;;;;;6164624;23;20316;-87
2022/01/23 23:24:07;;;;;;;11.80;6.63;;;5.60;99.90;;;;;;6168490;23;20197;-86
2022/01/23 23:26:34;;;;;;;10.68;6.25;;;5.40;99.90;;;;;;6165809;23;20297;-87
2022/01/23 23:29:02;;;;;;;12.18;7.07;;;5.30;99.90;;;;;;6165705;23;20570;-88
2022/01/23 23:31:30;;;;;;;14.05;7.07;;;5.50;99.90;;;;;;6164084;23;20234;-88
2022/01/23 23:33:57;;;;;;;12.50;6.35;;;5.40;99.90;;;;;;6163729;23;20323;-87
2022/01/23 23:36:24;;;;;;;9.38;5.97;;;5.40;99.90;;;;;;6165160;23;20206;-87
2022/01/23 23:38:52;;;;;;;10.98;7.00;;;5.40;99.90;;;;;;6162767;23;20222;-87
2022/01/23 23:41:25;;;;;;;10.15;6.00;;;5.40;99.90;;;;;;6162505;23;20234;-87
2022/01/23 23:44:03;;;;;;;10.13;6.47;;;5.20;99.90;;;;;;6162615;23;20166;-87
2022/01/23 23:46:31;;;;;;;10.48;6.30;;;5.00;99.90;;;;;;6163002;23;20214;-87
2022/01/23 23:49:05;;;;;;;9.95;6.18;;;5.10;99.90;;;;;;6163578;23;20178;-87
2022/01/23 23:51:35;;;;;;;10.02;6.25;;;5.10;99.90;;;;;;6163609;23;20205;-87
2022/01/23 23:54:02;;;;;;;10.27;5.85;;;5.30;99.90;;;;;;6163074;23;20186;-87
2022/01/23 23:56:30;;;;;;;9.23;5.57;;;5.10;99.90;;;;;;6162709;23;20221;-87
2022/01/23 23:58:57;;;;;;;10.18;5.68;;;5.10;99.90;;;;;;6162106;23;20373;-88
